createdAt,value
2018-03-06T00:01:06.142Z,7.80
2018-03-06T00:03:35.870Z,7.81
2018-03-06T00:06:05.746Z,7.88
2018-03-06T00:08:36.244Z,7.80
2018-03-06T00:11:09.020Z,7.81
2018-03-06T00:13:38.748Z,7.79
2018-03-06T00:16:08.435Z,7.88
2018-03-06T00:18:38.230Z,7.82
2018-03-06T00:21:08.839Z,7.74
2018-03-06T00:23:38.568Z,7.51
2018-03-06T00:26:08.302Z,7.63
2018-03-06T00:28:37.986Z,7.46
2018-03-06T00:31:07.821Z,7.38
2018-03-06T00:33:37.485Z,7.31
2018-03-06T00:36:08.134Z,7.36
2018-03-06T00:38:38.627Z,7.36
2018-03-06T00:41:08.371Z,7.38
2018-03-06T00:43:38.133Z,7.39
2018-03-06T00:46:07.879Z,7.30
2018-03-06T00:48:37.601Z,7.36
2018-03-06T00:51:07.345Z,7.29
2018-03-06T00:53:37.080Z,7.15
2018-03-06T00:56:06.884Z,7.08
2018-03-06T00:58:36.650Z,7.06
2018-03-06T01:01:07.325Z,7.14
2018-03-06T01:03:37.146Z,7.09
2018-03-06T01:06:06.968Z,7.00
2018-03-06T01:08:36.692Z,6.96
2018-03-06T01:11:06.462Z,7.14
2018-03-06T01:13:36.222Z,6.96
2018-03-06T01:16:05.977Z,6.91
2018-03-06T01:18:35.678Z,6.89
2018-03-06T01:21:05.400Z,6.87
2018-03-06T01:23:35.326Z,6.89
2018-03-06T01:26:05.060Z,6.83
2018-03-06T01:28:34.801Z,6.78
2018-03-06T01:31:04.633Z,6.84
2018-03-06T01:33:34.450Z,6.92
2018-03-06T01:36:04.165Z,6.74
2018-03-06T01:38:33.978Z,6.83
2018-03-06T01:41:03.751Z,6.58
2018-03-06T01:43:33.451Z,6.49
2018-03-06T01:46:03.138Z,6.51
2018-03-06T01:48:32.925Z,6.44
2018-03-06T01:51:02.647Z,6.38
2018-03-06T01:53:32.356Z,6.35
2018-03-06T01:56:02.211Z,6.33
2018-03-06T01:58:31.897Z,6.28
2018-03-06T02:01:01.588Z,6.22
2018-03-06T02:03:31.332Z,6.18
2018-03-06T02:06:01.112Z,6.14
2018-03-06T02:08:31.022Z,6.09
2018-03-06T02:11:00.775Z,6.03
2018-03-06T02:13:30.543Z,6.02
2018-03-06T02:16:01.920Z,6.07
2018-03-06T02:18:32.333Z,5.97
2018-03-06T02:21:02.082Z,5.87
2018-03-06T02:23:31.795Z,5.96
2018-03-06T02:26:01.679Z,5.99
2018-03-06T02:28:31.380Z,6.02
2018-03-06T02:31:01.072Z,6.14
2018-03-06T02:33:30.877Z,6.21
2018-03-06T02:36:01.512Z,6.37
2018-03-06T02:38:31.393Z,6.39
2018-03-06T02:41:01.142Z,6.26
2018-03-06T02:43:30.840Z,6.32
2018-03-06T02:46:11.344Z,6.40
2018-03-06T02:48:41.035Z,6.49
2018-03-06T02:51:10.805Z,6.55
2018-03-06T02:53:40.542Z,6.49
2018-03-06T02:56:10.304Z,6.47
2018-03-06T02:58:40.168Z,6.54
2018-03-06T03:01:09.880Z,6.59
2018-03-06T03:03:39.669Z,6.66
2018-03-06T03:06:09.416Z,6.67
2018-03-06T03:08:39.138Z,6.67
2018-03-06T03:11:08.896Z,6.89
2018-03-06T03:13:39.409Z,6.81
2018-03-06T03:16:09.177Z,6.67
2018-03-06T03:18:38.879Z,6.54
2018-03-06T03:21:09.419Z,6.53
2018-03-06T03:23:39.893Z,6.53
2018-03-06T03:26:09.678Z,6.48
2018-03-06T03:28:40.165Z,6.54
2018-03-06T03:31:09.889Z,6.55
2018-03-06T03:33:39.586Z,6.69
2018-03-06T03:36:09.343Z,6.73
2018-03-06T03:38:39.067Z,6.80
2018-03-06T03:41:08.788Z,6.86
2018-03-06T03:43:38.492Z,6.92
2018-03-06T03:46:08.294Z,6.93
2018-03-06T03:48:38.136Z,6.98
2018-03-06T03:51:07.948Z,6.87
2018-03-06T03:53:37.627Z,6.95
2018-03-06T03:56:11.528Z,7.00
2018-03-06T03:58:41.301Z,6.96
2018-03-06T04:01:11.013Z,6.93
2018-03-06T04:03:40.718Z,7.01
2018-03-06T04:06:11.202Z,7.07
2018-03-06T04:08:40.928Z,7.18
2018-03-06T04:11:10.631Z,7.15
2018-03-06T04:13:40.359Z,7.14
2018-03-06T04:16:10.049Z,7.20
2018-03-06T04:18:40.552Z,7.26
2018-03-06T04:21:10.259Z,7.32
2018-03-06T04:23:40.014Z,7.38
2018-03-06T04:26:09.703Z,7.38
2018-03-06T04:28:39.478Z,7.41
2018-03-06T04:31:09.920Z,7.43
2018-03-06T04:33:39.748Z,7.55
2018-03-06T04:36:09.476Z,7.64
2018-03-06T04:38:39.175Z,7.63
2018-03-06T04:41:09.666Z,7.63
2018-03-06T04:43:39.408Z,7.67
2018-03-06T04:46:09.200Z,7.75
2018-03-06T04:48:38.969Z,7.78
2018-03-06T04:51:08.732Z,7.83
2018-03-06T04:53:38.411Z,7.86
2018-03-06T04:56:08.831Z,7.89
2018-03-06T04:58:38.817Z,7.99
2018-03-06T05:01:08.538Z,8.03
2018-03-06T05:03:38.367Z,8.04
2018-03-06T05:06:08.072Z,8.08
2018-03-06T05:08:37.816Z,8.07
2018-03-06T05:11:07.752Z,8.15
2018-03-06T05:13:37.623Z,8.22
2018-03-06T05:16:08.205Z,8.23
2018-03-06T05:18:37.949Z,8.26
2018-03-06T05:21:07.696Z,8.29
2018-03-06T05:23:37.581Z,8.27
2018-03-06T05:26:07.340Z,8.30
2018-03-06T05:28:37.083Z,8.32
2018-03-06T05:31:07.588Z,8.31
2018-03-06T05:33:37.378Z,8.32
2018-03-06T05:36:07.271Z,8.36
2018-03-06T05:38:37.831Z,8.29
2018-03-06T05:41:07.606Z,8.31
2018-03-06T05:43:37.324Z,8.34
2018-03-06T05:46:07.047Z,8.31
2018-03-06T05:48:36.755Z,8.33
2018-03-06T05:51:06.467Z,8.37
2018-03-06T05:53:36.197Z,8.51
2018-03-06T05:56:05.923Z,8.55
2018-03-06T05:58:35.779Z,8.57
2018-03-06T06:01:06.475Z,8.51
2018-03-06T06:03:36.289Z,8.47
2018-03-06T06:06:06.141Z,8.44
2018-03-06T06:08:35.895Z,8.45
2018-03-06T06:11:06.484Z,8.44
2018-03-06T06:13:36.256Z,8.45
2018-03-06T06:16:06.880Z,8.40
2018-03-06T06:18:36.650Z,8.40
2018-03-06T06:21:07.217Z,8.51
2018-03-06T06:23:37.000Z,8.54
2018-03-06T06:26:07.552Z,8.49
2018-03-06T06:28:38.105Z,8.50
2018-03-06T06:31:07.997Z,8.47
2018-03-06T06:33:37.713Z,8.57
2018-03-06T06:36:07.839Z,8.54
2018-03-06T06:38:37.548Z,8.51
2018-03-06T06:41:07.515Z,8.52
2018-03-06T06:43:38.039Z,8.54
2018-03-06T06:46:07.863Z,8.62
2018-03-06T06:48:37.728Z,8.58
2018-03-06T06:51:07.514Z,8.53
2018-03-06T06:53:38.053Z,8.58
2018-03-06T06:56:08.576Z,8.64
2018-03-06T06:58:38.419Z,8.68
2018-03-06T07:01:08.169Z,8.74
2018-03-06T07:03:37.987Z,8.80
2018-03-06T07:06:07.880Z,8.87
2018-03-06T07:08:37.625Z,8.83
2018-03-06T07:11:08.212Z,8.92
2018-03-06T07:13:38.093Z,8.92
2018-03-06T07:16:08.694Z,8.91
2018-03-06T07:18:38.452Z,8.89
2018-03-06T07:21:08.982Z,8.88
2018-03-06T07:23:38.775Z,8.93
2018-03-06T07:26:08.690Z,8.95
2018-03-06T07:28:38.532Z,9.05
2018-03-06T07:31:08.359Z,9.08
2018-03-06T07:33:38.220Z,9.09
2018-03-06T07:36:08.807Z,9.22
2018-03-06T07:38:38.692Z,9.24
2018-03-06T07:41:08.511Z,9.27
2018-03-06T07:43:39.040Z,9.36
2018-03-06T07:46:09.572Z,9.37
2018-03-06T07:48:39.505Z,9.42
2018-03-06T07:51:10.153Z,9.47
2018-03-06T07:53:39.863Z,9.56
2018-03-06T07:56:09.713Z,9.60
2018-03-06T07:58:39.585Z,9.67
2018-03-06T08:01:09.277Z,9.66
2018-03-06T08:03:39.025Z,9.72
2018-03-06T08:06:08.847Z,9.73
2018-03-06T08:08:38.560Z,9.75
2018-03-06T08:11:08.319Z,9.84
2018-03-06T08:13:39.849Z,9.95
2018-03-06T08:16:09.747Z,9.99
2018-03-06T08:18:39.531Z,10.07
2018-03-06T08:21:09.440Z,10.11
2018-03-06T08:23:39.340Z,10.13
2018-03-06T08:26:09.145Z,10.12
2018-03-06T08:28:39.096Z,10.16
2018-03-06T08:31:08.877Z,10.21
2018-03-06T08:33:39.398Z,10.20
2018-03-06T08:36:09.455Z,10.28
2018-03-06T08:38:39.244Z,10.43
2018-03-06T08:41:09.013Z,10.73
2018-03-06T08:43:38.927Z,10.94
2018-03-06T08:46:09.445Z,11.12
2018-03-06T08:48:39.320Z,11.17
2018-03-06T08:51:09.072Z,11.23
2018-03-06T08:53:38.856Z,11.22
2018-03-06T08:56:08.696Z,11.39
2018-03-06T08:58:38.473Z,11.36
2018-03-06T09:01:08.986Z,11.48
2018-03-06T09:03:38.784Z,11.32
2018-03-06T09:06:08.653Z,11.22
2018-03-06T09:08:38.481Z,11.23
2018-03-06T09:11:09.061Z,11.26
2018-03-06T09:13:39.650Z,11.28
2018-03-06T09:16:09.456Z,11.26
2018-03-06T09:18:39.270Z,11.25
2018-03-06T09:21:09.047Z,11.26
2018-03-06T09:23:39.791Z,11.35
2018-03-06T09:26:10.372Z,11.53
2018-03-06T09:28:40.196Z,11.64
2018-03-06T09:31:10.030Z,11.69
2018-03-06T09:33:39.772Z,11.59
2018-03-06T09:36:09.554Z,11.59
2018-03-06T09:38:40.222Z,11.52
2018-03-06T09:41:09.974Z,11.61
2018-03-06T09:43:39.711Z,11.65
2018-03-06T09:46:10.192Z,11.71
2018-03-06T09:48:39.953Z,11.78
2018-03-06T09:51:09.742Z,11.60
2018-03-06T09:53:39.519Z,11.51
2018-03-06T09:56:10.032Z,11.55
2018-03-06T09:58:40.052Z,11.51
2018-03-06T10:01:09.883Z,11.41
2018-03-06T10:03:39.693Z,11.48
2018-03-06T10:06:09.528Z,11.49
2018-03-06T10:08:39.303Z,11.62
2018-03-06T10:11:09.148Z,11.73
2018-03-06T10:13:38.940Z,11.84
2018-03-06T10:16:08.976Z,12.04
2018-03-06T10:18:39.264Z,12.20
2018-03-06T10:21:09.006Z,12.44
2018-03-06T10:23:39.811Z,12.62
2018-03-06T10:26:09.592Z,12.75
2018-03-06T10:28:39.476Z,12.98
2018-03-06T10:31:09.374Z,13.01
2018-03-06T10:33:39.132Z,13.19
2018-03-06T10:36:08.839Z,13.24
2018-03-06T10:38:38.728Z,13.38
2018-03-06T10:41:08.540Z,13.49
2018-03-06T10:43:38.348Z,13.35
2018-03-06T10:46:09.013Z,13.31
2018-03-06T10:48:38.758Z,13.34
2018-03-06T10:51:08.638Z,13.33
2018-03-06T10:53:39.201Z,13.42
2018-03-06T10:56:08.918Z,13.50
2018-03-06T10:58:38.772Z,13.51
2018-03-06T11:01:09.292Z,13.58
2018-03-06T11:03:39.809Z,13.60
2018-03-06T11:06:10.279Z,13.65
2018-03-06T11:08:40.113Z,13.63
2018-03-06T11:11:09.865Z,13.60
2018-03-06T11:13:39.638Z,13.56
2018-03-06T11:16:09.467Z,13.57
2018-03-06T11:18:39.191Z,13.69
2018-03-06T11:21:08.974Z,13.61
2018-03-06T11:23:39.632Z,13.61
2018-03-06T11:26:09.413Z,13.54
2018-03-06T11:28:39.221Z,13.53
2018-03-06T11:31:08.920Z,13.48
2018-03-06T11:33:39.637Z,13.39
2018-03-06T11:36:10.253Z,13.46
2018-03-06T11:38:39.978Z,13.44
2018-03-06T11:41:09.859Z,13.43
2018-03-06T11:43:39.746Z,13.55
2018-03-06T11:46:10.292Z,13.58
2018-03-06T11:48:39.996Z,13.69
2018-03-06T11:51:09.757Z,13.75
2018-03-06T11:53:39.613Z,13.80
2018-03-06T11:56:09.600Z,13.79
2018-03-06T11:58:39.372Z,13.92
2018-03-06T12:01:09.140Z,13.95
2018-03-06T12:03:39.056Z,13.96
2018-03-06T12:06:09.627Z,14.01
2018-03-06T12:08:39.372Z,14.05
2018-03-06T12:11:09.099Z,14.14
2018-03-06T12:13:38.814Z,14.20
2018-03-06T12:16:08.707Z,14.22
2018-03-06T12:18:38.676Z,14.29
2018-03-06T12:21:08.519Z,14.26
2018-03-06T12:23:38.400Z,14.08
2018-03-06T12:26:08.274Z,14.24
2018-03-06T12:28:38.052Z,14.33
2018-03-06T12:31:07.960Z,14.45
2018-03-06T12:33:37.765Z,14.45
2018-03-06T12:36:07.585Z,14.43
2018-03-06T12:38:38.275Z,14.46
2018-03-06T12:41:08.213Z,14.47
2018-03-06T12:43:38.114Z,14.44
2018-03-06T12:46:08.100Z,14.45
2018-03-06T12:48:37.995Z,14.35
2018-03-06T12:51:08.003Z,14.29
2018-03-06T12:53:37.844Z,14.26
2018-03-06T12:56:07.627Z,14.29
2018-03-06T12:58:37.466Z,14.40
2018-03-06T13:01:07.328Z,14.50
2018-03-06T13:03:37.136Z,14.49
2018-03-06T13:06:07.041Z,14.57
2018-03-06T13:08:36.893Z,14.67
2018-03-06T13:11:06.936Z,14.85
2018-03-06T13:13:36.814Z,15.01
2018-03-06T13:16:06.677Z,15.15
2018-03-06T13:18:36.532Z,15.28
2018-03-06T13:21:06.409Z,15.45
2018-03-06T13:23:36.194Z,15.57
2018-03-06T13:26:06.143Z,15.62
2018-03-06T13:28:36.023Z,15.82
2018-03-06T13:31:05.988Z,15.71
2018-03-06T13:33:35.851Z,15.84
2018-03-06T13:36:05.823Z,15.58
2018-03-06T13:38:35.767Z,15.47
2018-03-06T13:41:05.657Z,15.46
2018-03-06T13:43:36.267Z,15.63
2018-03-06T13:46:06.236Z,15.74
2018-03-06T13:48:36.126Z,15.83
2018-03-06T13:51:06.080Z,15.65
2018-03-06T13:53:36.672Z,15.78
2018-03-06T13:56:06.490Z,15.99
2018-03-06T13:58:36.421Z,16.02
2018-03-06T14:01:06.369Z,16.10
2018-03-06T14:03:36.334Z,16.01
2018-03-06T14:06:06.957Z,15.92
2018-03-06T14:08:36.871Z,16.02
2018-03-06T14:11:06.667Z,16.13
2018-03-06T14:13:36.556Z,15.87
2018-03-06T14:16:06.456Z,15.73
2018-03-06T14:18:36.292Z,15.68
2018-03-06T14:21:07.497Z,15.68
2018-03-06T14:23:37.338Z,15.69
2018-03-06T14:26:07.219Z,15.85
2018-03-06T14:28:37.048Z,15.62
2018-03-06T14:31:07.045Z,15.43
2018-03-06T14:33:36.869Z,15.27
2018-03-06T14:36:06.780Z,15.20
2018-03-06T14:38:36.608Z,15.06
2018-03-06T14:41:06.775Z,14.54
2018-03-06T14:43:36.657Z,14.68
2018-03-06T14:46:06.534Z,14.83
2018-03-06T14:48:36.486Z,14.99
2018-03-06T14:51:08.049Z,15.10
2018-03-06T14:53:37.917Z,15.41
2018-03-06T14:56:08.380Z,15.63
2018-03-06T14:58:38.256Z,15.75
2018-03-06T15:01:08.433Z,15.72
2018-03-06T15:03:39.166Z,15.77
2018-03-06T15:06:09.773Z,15.92
2018-03-06T15:08:39.571Z,15.76
2018-03-06T15:11:09.397Z,15.36
2018-03-06T15:13:39.412Z,14.74
2018-03-06T15:16:09.343Z,14.58
2018-03-06T15:18:39.364Z,14.56
2018-03-06T15:21:09.285Z,14.44
2018-03-06T15:23:39.069Z,14.35
2018-03-06T15:26:08.908Z,14.18
2018-03-06T15:28:38.872Z,14.10
2018-03-06T15:31:08.694Z,14.00
2018-03-06T15:33:38.579Z,13.96
2018-03-06T15:36:08.473Z,13.88
2018-03-06T15:38:38.301Z,13.87
2018-03-06T15:41:08.154Z,13.78
2018-03-06T15:43:38.130Z,13.75
2018-03-06T15:46:07.915Z,13.63
2018-03-06T15:48:38.537Z,13.68
2018-03-06T15:51:08.352Z,13.64
2018-03-06T15:53:38.219Z,13.54
2018-03-06T15:56:08.044Z,13.46
2018-03-06T15:58:38.726Z,13.41
2018-03-06T16:01:08.517Z,13.31
2018-03-06T16:03:38.254Z,13.49
2018-03-06T16:06:08.252Z,13.39
2018-03-06T16:08:38.786Z,13.31
2018-03-06T16:11:08.587Z,13.17
2018-03-06T16:13:38.389Z,13.13
2018-03-06T16:16:08.553Z,13.00
2018-03-06T16:18:38.305Z,12.92
2018-03-06T16:21:08.284Z,12.93
2018-03-06T16:23:38.090Z,12.95
2018-03-06T16:26:08.631Z,12.88
2018-03-06T16:28:38.464Z,12.79
2018-03-06T16:31:08.393Z,12.67
2018-03-06T16:33:38.192Z,12.62
2018-03-06T16:36:08.112Z,12.70
2018-03-06T16:38:39.067Z,12.57
2018-03-06T16:41:08.876Z,12.49
2018-03-06T16:43:38.677Z,12.57
2018-03-06T16:46:09.375Z,12.54
2018-03-06T16:48:39.228Z,12.58
2018-03-06T16:51:08.994Z,12.70
2018-03-06T16:53:38.880Z,12.65
2018-03-06T16:56:08.660Z,12.67
2018-03-06T16:58:38.465Z,12.72
2018-03-06T17:01:08.317Z,12.69
2018-03-06T17:03:38.146Z,12.64
2018-03-06T17:06:08.294Z,12.51
2018-03-06T17:08:38.248Z,12.41
2018-03-06T17:11:08.164Z,12.23
2018-03-06T17:13:38.033Z,12.14
2018-03-06T17:16:08.023Z,12.09
2018-03-06T17:18:37.707Z,12.03
2018-03-06T17:21:07.572Z,12.03
2018-03-06T17:23:37.482Z,12.04
2018-03-06T17:26:07.309Z,11.94
2018-03-06T17:28:37.164Z,11.93
2018-03-06T17:31:06.953Z,11.92
2018-03-06T17:33:36.771Z,11.87
2018-03-06T17:36:06.623Z,11.88
2018-03-06T17:38:36.376Z,11.88
2018-03-06T17:41:06.156Z,11.92
2018-03-06T17:43:35.892Z,11.87
2018-03-06T17:46:05.720Z,11.87
2018-03-06T17:48:35.455Z,11.92
2018-03-06T17:51:05.372Z,11.80
2018-03-06T17:53:35.192Z,11.90
2018-03-06T17:56:04.977Z,12.08
2018-03-06T17:58:34.736Z,12.01
2018-03-06T18:01:04.467Z,12.04
2018-03-06T18:03:34.260Z,11.90
2018-03-06T18:06:04.347Z,11.85
2018-03-06T18:08:34.153Z,11.82
2018-03-06T18:11:03.904Z,11.71
2018-03-06T18:13:33.707Z,11.72
2018-03-06T18:16:03.448Z,11.74
2018-03-06T18:18:33.266Z,11.71
2018-03-06T18:21:03.109Z,11.80
2018-03-06T18:23:32.934Z,11.84
2018-03-06T18:26:02.802Z,11.81
2018-03-06T18:28:32.603Z,11.85
2018-03-06T18:31:03.293Z,11.73
2018-03-06T18:33:33.259Z,11.84
2018-03-06T18:36:03.111Z,11.77
2018-03-06T18:38:32.993Z,11.64
2018-03-06T18:41:02.761Z,11.57
2018-03-06T18:43:32.606Z,11.49
2018-03-06T18:46:02.402Z,11.63
2018-03-06T18:48:32.195Z,11.63
2018-03-06T18:51:12.370Z,11.69
2018-03-06T18:53:42.163Z,11.63
2018-03-06T18:58:40.809Z,11.61
2018-03-06T19:02:30.981Z,11.68
2018-03-06T19:06:15.815Z,11.58
2018-03-06T19:08:45.778Z,11.51
2018-03-06T19:11:15.547Z,11.45
2018-03-06T19:13:45.508Z,11.54
2018-03-06T19:16:16.141Z,11.60
2018-03-06T19:18:45.923Z,11.63
2018-03-06T19:21:15.736Z,11.56
2018-03-06T19:23:45.537Z,11.52
2018-03-06T19:26:15.520Z,11.41
2018-03-06T19:28:45.259Z,11.33
2018-03-06T19:31:15.062Z,11.31
2018-03-06T19:33:44.832Z,11.27
2018-03-06T19:36:14.720Z,11.21
2018-03-06T19:38:44.418Z,11.28
2018-03-06T19:41:14.222Z,11.30
2018-03-06T19:43:43.992Z,11.26
2018-03-06T19:46:13.929Z,11.27
2018-03-06T19:48:44.520Z,11.28
2018-03-06T19:51:14.351Z,11.24
2018-03-06T19:53:44.268Z,11.15
2018-03-06T19:56:14.080Z,11.05
2018-03-06T19:58:43.848Z,11.01
2018-03-06T20:01:13.732Z,11.02
2018-03-06T20:03:43.573Z,11.06
2018-03-06T20:06:13.361Z,10.98
2018-03-06T20:08:43.914Z,11.06
2018-03-06T20:11:13.648Z,10.92
2018-03-06T20:13:43.445Z,11.03
2018-03-06T20:16:13.284Z,11.04
2018-03-06T20:18:43.498Z,11.04
2018-03-06T20:21:13.446Z,11.03
2018-03-06T20:23:43.237Z,11.05
2018-03-06T20:26:13.990Z,11.03
2018-03-06T20:28:43.927Z,10.95
2018-03-06T20:32:17.221Z,10.84
2018-03-06T20:34:46.981Z,10.79
2018-03-06T20:37:16.774Z,10.87
2018-03-06T20:40:51.317Z,10.92
2018-03-06T20:43:21.161Z,10.92
2018-03-06T20:45:55.805Z,10.89
2018-03-06T20:48:25.601Z,11.10
2018-03-06T20:50:55.549Z,11.18
2018-03-06T20:53:29.468Z,11.19
2018-03-06T20:55:59.983Z,11.11
2018-03-06T20:58:29.771Z,11.16
2018-03-06T21:00:59.495Z,11.10
2018-03-06T21:03:29.271Z,11.01
2018-03-06T21:05:59.820Z,10.96
2018-03-06T21:08:29.597Z,11.00
2018-03-06T21:10:59.616Z,10.98
2018-03-06T21:13:29.390Z,10.98
2018-03-06T21:16:00.026Z,10.97
2018-03-06T21:18:30.757Z,10.91
2018-03-06T21:21:01.354Z,10.80
2018-03-06T21:23:31.103Z,10.76
2018-03-06T21:26:00.878Z,10.80
2018-03-06T21:28:30.840Z,10.77
2018-03-06T21:31:00.614Z,10.75
2018-03-06T21:33:31.140Z,10.88
2018-03-06T21:36:01.679Z,10.80
2018-03-06T21:38:31.449Z,10.80
2018-03-06T21:41:01.208Z,10.75
2018-03-06T21:43:31.031Z,10.76
2018-03-06T21:46:00.835Z,10.71
2018-03-06T21:48:30.552Z,10.69
2018-03-06T21:51:00.536Z,10.68
2018-03-06T21:53:31.060Z,10.68
2018-03-06T21:56:00.869Z,10.75
2018-03-06T21:58:30.622Z,10.74
2018-03-06T22:01:00.403Z,10.70
2018-03-06T22:03:30.163Z,10.66
2018-03-06T22:06:00.740Z,10.76
2018-03-06T22:08:30.507Z,10.93
2018-03-06T22:11:00.253Z,10.95
2018-03-06T22:13:30.800Z,10.91
2018-03-06T22:16:01.689Z,10.92
2018-03-06T22:18:31.676Z,10.81
2018-03-06T22:21:02.156Z,10.87
2018-03-06T22:23:31.919Z,10.82
2018-03-06T22:26:02.493Z,10.77
2018-03-06T22:28:32.248Z,10.69
2018-03-06T22:31:02.003Z,10.69
2018-03-06T22:33:32.521Z,10.64
2018-03-06T22:36:02.239Z,10.58
2018-03-06T22:38:31.936Z,10.68
2018-03-06T22:41:01.666Z,10.50
2018-03-06T22:43:31.472Z,10.65
2018-03-06T22:46:01.243Z,10.54
2018-03-06T22:48:31.041Z,10.46
2018-03-06T22:51:00.752Z,10.42
2018-03-06T22:53:30.769Z,10.28
2018-03-06T22:56:00.649Z,10.22
2018-03-06T22:58:30.366Z,10.15
2018-03-06T23:01:00.129Z,10.08
2018-03-06T23:03:30.090Z,10.19
2018-03-06T23:05:59.930Z,10.06
2018-03-06T23:08:29.685Z,9.93
2018-03-06T23:10:59.400Z,10.07
2018-03-06T23:13:29.696Z,10.10
2018-03-06T23:15:59.723Z,10.01
2018-03-06T23:18:29.965Z,10.12
2018-03-06T23:20:59.736Z,10.04
2018-03-06T23:23:29.473Z,9.92
2018-03-06T23:25:59.273Z,9.87
2018-03-06T23:28:29.739Z,9.83
2018-03-06T23:30:59.458Z,9.72
2018-03-06T23:33:30.367Z,9.66
2018-03-06T23:36:00.134Z,9.62
2018-03-06T23:38:29.947Z,9.57
2018-03-06T23:40:59.784Z,9.50
2018-03-06T23:43:29.550Z,9.46
2018-03-06T23:45:59.284Z,9.41
2018-03-06T23:48:29.102Z,9.59
2018-03-06T23:50:58.807Z,9.74
2018-03-06T23:53:29.035Z,9.87
2018-03-06T23:55:58.731Z,9.78
2018-03-06T23:58:28.701Z,9.82
